Time;durP1;ratioP1;P1;durP2;ratioP2;P2;SDS_P1;SDS_P2;PMS_P1;PMS_P2;Temp;Humidity;BMP_temperature;BMP_pressure;BME280_temperature;BME280_humidity;BME280_pressure;Samples;Min_cycle;Max_cycle;Signal;HPM_P1;HPM_P2
2022/04/29 00:00:34;;;;;;;1.60;1.50;;;24.00;54.40;;;;;;5054375;28;20457;-85
2022/04/29 00:03:01;;;;;;;1.70;1.60;;;24.10;54.30;;;;;;5054509;28;20497;-85
2022/04/29 00:05:29;;;;;;;1.77;1.67;;;24.10;54.50;;;;;;5054548;28;20441;-85
2022/04/29 00:07:56;;;;;;;1.70;1.60;;;24.10;54.10;;;;;;5054547;28;20788;-85
2022/04/29 00:10:22;;;;;;;1.60;1.50;;;24.10;54.30;;;;;;5054462;28;20462;-85
2022/04/29 00:12:50;;;;;;;2.00;1.50;;;24.20;54.20;;;;;;5054110;28;20474;-85
2022/04/29 00:15:19;;;;;;;1.67;1.57;;;24.10;54.90;;;;;;5054252;28;20442;-85
2022/04/29 00:17:47;;;;;;;1.70;1.43;;;24.20;54.60;;;;;;5054196;28;20465;-94
2022/04/29 00:20:15;;;;;;;1.97;1.47;;;24.10;54.70;;;;;;5054050;28;20964;-85
2022/04/29 00:22:44;;;;;;;1.40;1.30;;;24.00;54.70;;;;;;5053747;28;20486;-95
2022/04/29 00:25:12;;;;;;;2.10;1.90;;;24.10;55.00;;;;;;5054293;28;20496;-95
2022/04/29 00:27:40;;;;;;;1.93;1.50;;;24.10;55.50;;;;;;5053958;28;20932;-85
2022/04/29 00:30:09;;;;;;;1.70;1.30;;;24.00;54.60;;;;;;5053827;28;20438;-84
2022/04/29 00:32:36;;;;;;;1.37;1.27;;;24.00;54.90;;;;;;5053026;28;20438;-85
2022/04/29 00:35:05;;;;;;;1.63;1.53;;;24.10;56.20;;;;;;5053910;28;20445;-85
2022/04/29 00:37:32;;;;;;;1.60;1.50;;;24.00;55.80;;;;;;5054005;28;20795;-95
2022/04/29 00:39:59;;;;;;;1.67;1.57;;;24.00;55.70;;;;;;5053718;28;20449;-85
2022/04/29 00:42:27;;;;;;;1.67;1.57;;;24.00;55.90;;;;;;5053467;28;20497;-85
2022/04/29 00:44:53;;;;;;;1.57;1.47;;;24.00;55.80;;;;;;5053657;28;20445;-95
2022/04/29 00:47:21;;;;;;;1.70;1.60;;;24.10;56.20;;;;;;5053716;28;20442;-88
2022/04/29 00:49:51;;;;;;;1.53;1.43;;;24.00;55.20;;;;;;5053621;28;20469;-85
2022/04/29 00:52:20;;;;;;;1.50;1.40;;;24.00;54.90;;;;;;5053849;28;20460;-96
2022/04/29 00:54:53;;;;;;;1.47;1.37;;;24.00;54.60;;;;;;5053721;28;20445;-85
2022/04/29 00:57:25;;;;;;;2.03;1.90;;;24.00;55.20;;;;;;5053376;28;20461;-85
2022/04/29 00:59:58;;;;;;;1.53;1.43;;;24.00;55.00;;;;;;5053504;28;20448;-85
2022/04/29 01:02:25;;;;;;;1.70;1.60;;;24.00;55.00;;;;;;5052965;28;20492;-85
2022/04/29 01:04:59;;;;;;;2.73;1.80;;;24.00;55.00;;;;;;5053326;28;20442;-85
2022/04/29 01:07:28;;;;;;;1.43;1.33;;;24.00;53.90;;;;;;5053417;28;20441;-85
2022/04/29 01:09:55;;;;;;;2.23;1.70;;;24.00;54.20;;;;;;5053495;28;20951;-85
2022/04/29 01:12:23;;;;;;;1.53;1.43;;;24.00;54.00;;;;;;5053272;28;20488;-95
2022/04/29 01:14:50;;;;;;;2.60;1.87;;;24.00;54.00;;;;;;5035634;28;20504;-85
2022/04/29 01:17:17;;;;;;;1.47;1.37;;;24.00;53.70;;;;;;5053337;28;20947;-85
2022/04/29 01:19:43;;;;;;;1.40;1.30;;;24.00;53.70;;;;;;5053466;28;20929;-96
2022/04/29 01:22:12;;;;;;;1.63;1.53;;;24.00;53.80;;;;;;5034748;28;20509;-85
2022/04/29 01:24:39;;;;;;;1.90;1.50;;;24.00;53.50;;;;;;5053093;28;20448;-85
2022/04/29 01:27:10;;;;;;;1.90;1.80;;;24.00;53.50;;;;;;5053308;28;20450;-86
2022/04/29 01:29:38;;;;;;;1.40;1.30;;;24.00;53.30;;;;;;5053318;28;20450;-85
2022/04/29 01:32:06;;;;;;;1.97;1.40;;;24.00;53.30;;;;;;5052585;28;20445;-85
2022/04/29 01:34:32;;;;;;;1.60;1.50;;;24.00;53.20;;;;;;5053276;28;20458;-85
2022/04/29 01:36:59;;;;;;;1.50;1.40;;;24.00;53.20;;;;;;5053099;28;20448;-85
2022/04/29 01:39:27;;;;;;;1.63;1.53;;;24.00;53.30;;;;;;5053173;28;20457;-95
2022/04/29 01:41:54;;;;;;;1.83;1.50;;;24.00;53.20;;;;;;5052597;28;20485;-94
2022/04/29 01:44:21;;;;;;;1.47;1.37;;;24.00;53.20;;;;;;5056220;28;20442;-84
2022/04/29 01:46:48;;;;;;;1.43;1.30;;;24.00;53.20;;;;;;5057034;28;20445;-85
2022/04/29 01:49:15;;;;;;;1.30;1.20;;;24.00;53.20;;;;;;5057267;28;20438;-95
2022/04/29 01:51:42;;;;;;;1.80;1.50;;;24.00;53.30;;;;;;5057141;28;20530;-96
2022/04/29 01:54:10;;;;;;;1.63;1.53;;;24.00;53.20;;;;;;5056791;28;20449;-84
2022/04/29 01:56:39;;;;;;;1.73;1.40;;;23.90;53.10;;;;;;5057043;28;20456;-85
2022/04/29 01:59:06;;;;;;;1.87;1.60;;;24.00;53.30;;;;;;5057075;28;20442;-86
2022/04/29 02:01:33;;;;;;;1.57;1.30;;;23.90;53.10;;;;;;5056636;28;21000;-85
2022/04/29 02:04:01;;;;;;;1.63;1.53;;;23.90;53.20;;;;;;5056699;28;20960;-85
2022/04/29 02:06:28;;;;;;;1.60;1.50;;;23.90;53.30;;;;;;5056576;28;20446;-85
2022/04/29 02:08:55;;;;;;;1.70;1.47;;;23.90;53.30;;;;;;5056716;28;20449;-85
2022/04/29 02:11:22;;;;;;;1.60;1.17;;;23.90;53.50;;;;;;5056185;28;20528;-85
2022/04/29 02:13:50;;;;;;;1.40;1.20;;;23.90;53.10;;;;;;5056489;28;20446;-84
2022/04/29 02:16:18;;;;;;;1.70;1.30;;;23.90;53.10;;;;;;5056622;28;20442;-84
2022/04/29 02:18:44;;;;;;;1.40;1.00;;;23.90;53.30;;;;;;5056604;28;20474;-95
2022/04/29 02:21:11;;;;;;;1.80;1.27;;;23.90;53.30;;;;;;5056385;28;20441;-85
2022/04/29 02:23:38;;;;;;;1.40;1.30;;;23.90;53.20;;;;;;5056241;28;20438;-85
2022/04/29 02:26:05;;;;;;;1.50;1.40;;;23.90;53.10;;;;;;5038687;28;20437;-85
2022/04/29 02:28:34;;;;;;;1.60;1.33;;;23.90;53.30;;;;;;5056203;28;20957;-85
2022/04/29 02:31:03;;;;;;;1.57;1.47;;;23.90;53.10;;;;;;5038909;28;20532;-85
2022/04/29 02:33:30;;;;;;;1.50;1.40;;;23.90;53.10;;;;;;5038566;28;20458;-85
2022/04/29 02:35:57;;;;;;;1.57;1.47;;;23.90;53.20;;;;;;5038720;28;20445;-85
2022/04/29 02:38:24;;;;;;;1.23;1.13;;;23.90;53.20;;;;;;5055987;28;20450;-85
2022/04/29 02:40:51;;;;;;;1.60;1.33;;;23.90;53.10;;;;;;5056032;28;20941;-85
2022/04/29 02:43:18;;;;;;;1.40;1.27;;;23.90;53.10;;;;;;5056016;28;20485;-95
2022/04/29 02:45:46;;;;;;;1.50;1.17;;;23.90;53.10;;;;;;5055945;28;20445;-85
2022/04/29 02:48:15;;;;;;;1.67;1.10;;;23.90;53.00;;;;;;5055917;28;20536;-85
2022/04/29 02:50:41;;;;;;;3.47;1.23;;;23.90;53.00;;;;;;5056020;28;20492;-85
2022/04/29 02:53:08;;;;;;;1.30;1.20;;;23.90;53.00;;;;;;5055917;28;20801;-88
2022/04/29 02:55:35;;;;;;;1.40;1.30;;;23.90;53.00;;;;;;5054926;28;20449;-87
2022/04/29 02:58:02;;;;;;;1.53;1.43;;;23.90;53.10;;;;;;5055748;28;20479;-85
2022/04/29 03:00:29;;;;;;;1.20;1.10;;;23.90;53.00;;;;;;5055815;28;20810;-85
2022/04/29 03:02:55;;;;;;;1.93;1.53;;;23.80;52.90;;;;;;5055664;28;20497;-85
2022/04/29 03:05:24;;;;;;;1.63;1.30;;;23.90;53.00;;;;;;5055682;28;20442;-96
2022/04/29 03:07:51;;;;;;;1.40;1.30;;;23.90;53.00;;;;;;5055747;28;20448;-89
2022/04/29 03:10:17;;;;;;;2.13;1.40;;;23.80;52.90;;;;;;5055781;28;20438;-95
2022/04/29 03:12:44;;;;;;;1.50;1.40;;;23.80;52.90;;;;;;5055156;28;20481;-84
2022/04/29 03:15:18;;;;;;;1.60;1.50;;;23.80;52.90;;;;;;5055380;28;20449;-84
2022/04/29 03:20:31;;;;;;;1.47;1.37;;;23.80;52.90;;;;;;5055515;28;20564;-95
2022/04/29 03:22:57;;;;;;;2.27;1.30;;;23.80;52.90;;;;;;5055223;28;21027;-85
2022/04/29 03:25:24;;;;;;;1.80;1.20;;;23.80;52.90;;;;;;5055387;28;20778;-85
2022/04/29 03:27:51;;;;;;;1.30;1.20;;;23.80;53.00;;;;;;5055309;28;20441;-95
2022/04/29 03:30:18;;;;;;;1.20;1.00;;;23.80;53.00;;;;;;5055250;28;20453;-95
2022/04/29 03:32:52;;;;;;;1.50;1.23;;;23.80;52.90;;;;;;5037195;28;20458;-85
2022/04/29 03:35:18;;;;;;;1.70;1.43;;;23.80;52.90;;;;;;5055373;28;20882;-95
2022/04/29 03:37:48;;;;;;;1.87;1.30;;;23.80;52.90;;;;;;5055017;28;20808;-85
2022/04/29 03:40:16;;;;;;;2.10;1.60;;;23.80;53.10;;;;;;5054733;28;20448;-85
2022/04/29 03:42:43;;;;;;;1.87;1.17;;;23.80;52.90;;;;;;5054835;28;21008;-95
2022/04/29 03:45:10;;;;;;;1.53;1.20;;;23.80;53.00;;;;;;5055548;28;20445;-85
2022/04/29 03:47:37;;;;;;;1.27;1.10;;;23.80;52.90;;;;;;5054911;28;20453;-85
2022/04/29 03:50:06;;;;;;;1.40;1.30;;;23.80;52.90;;;;;;5054923;28;20437;-85
2022/04/29 03:52:33;;;;;;;1.63;1.53;;;23.80;52.90;;;;;;5054718;28;20442;-95
2022/04/29 03:55:01;;;;;;;1.40;1.20;;;23.90;52.90;;;;;;5054549;28;20468;-85
2022/04/29 03:57:28;;;;;;;1.20;1.10;;;23.80;52.90;;;;;;5054842;28;20434;-85
2022/04/29 03:59:54;;;;;;;1.20;1.10;;;23.80;52.90;;;;;;5054433;28;20446;-85
2022/04/29 04:02:21;;;;;;;1.70;1.20;;;23.80;53.00;;;;;;5054405;28;20492;-95
2022/04/29 04:04:48;;;;;;;1.70;1.50;;;23.80;52.90;;;;;;5036437;28;20446;-85
2022/04/29 04:07:15;;;;;;;1.30;1.20;;;23.80;52.90;;;;;;5053197;28;20453;-85
2022/04/29 04:09:42;;;;;;;1.20;1.10;;;23.80;52.90;;;;;;5054531;28;20447;-84
2022/04/29 04:12:11;;;;;;;1.70;1.30;;;23.80;53.00;;;;;;5054237;28;20489;-84
2022/04/29 04:14:38;;;;;;;1.23;1.13;;;23.80;53.00;;;;;;5053746;28;20438;-84
2022/04/29 04:17:05;;;;;;;1.20;1.10;;;23.80;53.00;;;;;;5054229;28;20449;-85
2022/04/29 04:19:32;;;;;;;1.30;1.20;;;23.80;52.90;;;;;;5054162;28;20442;-85
2022/04/29 04:21:59;;;;;;;1.03;0.93;;;23.80;52.90;;;;;;5054302;28;20446;-85
2022/04/29 04:24:26;;;;;;;2.27;1.30;;;23.80;53.10;;;;;;5054533;28;20446;-95
2022/04/29 04:26:53;;;;;;;1.53;1.07;;;23.80;52.90;;;;;;5055179;28;20929;-83
2022/04/29 04:29:21;;;;;;;1.13;1.03;;;23.80;53.60;;;;;;5054751;28;20962;-83
2022/04/29 04:31:48;;;;;;;1.30;1.20;;;23.80;53.40;;;;;;5054257;28;20803;-83
2022/04/29 04:37:00;;;;;;;1.40;1.10;;;23.90;53.50;;;;;;5054186;28;20425;-95
2022/04/29 04:39:26;;;;;;;1.20;1.10;;;23.80;53.70;;;;;;5054073;28;20438;-84
2022/04/29 04:41:53;;;;;;;1.87;1.67;;;23.80;54.50;;;;;;5053786;28;20445;-84
2022/04/29 04:44:21;;;;;;;1.10;0.90;;;23.80;54.10;;;;;;5053733;28;20453;-83
2022/04/29 04:46:48;;;;;;;1.73;1.63;;;23.80;54.00;;;;;;5053898;28;20474;-84
2022/04/29 04:49:15;;;;;;;3.10;1.20;;;23.80;53.60;;;;;;5054031;28;20443;-84
2022/04/29 04:51:42;;;;;;;4.83;1.47;;;23.90;53.60;;;;;;5053978;28;20450;-96
2022/04/29 04:54:09;;;;;;;3.77;1.40;;;23.80;53.50;;;;;;5053900;28;20438;-84
2022/04/29 04:56:36;;;;;;;1.10;1.00;;;23.90;53.80;;;;;;5053981;28;20438;-84
2022/04/29 04:59:04;;;;;;;2.83;1.30;;;23.80;54.20;;;;;;5053872;28;20440;-84
2022/04/29 05:01:32;;;;;;;2.07;1.40;;;23.80;54.30;;;;;;5053896;28;20453;-84
2022/04/29 05:03:59;;;;;;;2.97;1.47;;;23.80;54.20;;;;;;5053833;28;21000;-83
2022/04/29 05:06:25;;;;;;;1.83;1.43;;;23.80;53.90;;;;;;5054171;28;20445;-84
2022/04/29 05:08:52;;;;;;;1.40;1.30;;;23.80;53.70;;;;;;5053610;28;20445;-84
2022/04/29 05:11:19;;;;;;;2.13;1.80;;;23.80;53.70;;;;;;5053619;28;20448;-83
2022/04/29 05:13:46;;;;;;;4.10;1.60;;;23.80;53.70;;;;;;5055419;28;20453;-83
2022/04/29 05:16:12;;;;;;;2.30;1.57;;;23.80;53.90;;;;;;5060166;28;20434;-84
2022/04/29 05:18:41;;;;;;;2.77;1.80;;;23.90;53.80;;;;;;5063911;28;20936;-84
2022/04/29 05:21:07;;;;;;;2.07;1.63;;;23.70;53.70;;;;;;5064166;28;20434;-89
2022/04/29 05:23:43;;;;;;;2.03;1.80;;;23.80;54.10;;;;;;5065573;28;20994;-94
2022/04/29 05:26:10;;;;;;;1.77;1.67;;;23.80;53.90;;;;;;5056263;28;20445;-84
2022/04/29 05:28:37;;;;;;;2.90;2.10;;;23.80;54.00;;;;;;5056001;28;20445;-96
2022/04/29 05:31:04;;;;;;;1.67;1.57;;;23.80;53.50;;;;;;5053363;28;20447;-84
2022/04/29 05:33:32;;;;;;;2.80;1.70;;;23.80;53.90;;;;;;5053050;28;20466;-84
2022/04/29 05:36:01;;;;;;;3.63;1.60;;;23.80;54.50;;;;;;5053606;28;20445;-84
2022/04/29 05:42:14;;;;;;;2.23;1.30;;;23.70;54.00;;;;;;5053623;28;20453;-85
2022/04/29 05:44:00;;;;;;;3.30;1.60;;;23.70;54.00;;;;;;5053337;28;20519;-84
2022/04/29 05:46:27;;;;;;;2.93;2.40;;;23.70;53.90;;;;;;5053369;28;20453;-96
2022/04/29 05:48:53;;;;;;;2.10;1.63;;;23.80;54.00;;;;;;5053529;28;20444;-84
2022/04/29 05:51:22;;;;;;;2.00;1.50;;;23.80;54.00;;;;;;5053333;28;20442;-84
2022/04/29 05:53:48;;;;;;;2.67;2.00;;;23.80;54.10;;;;;;5053886;28;20457;-83
2022/04/29 05:56:15;;;;;;;2.23;1.67;;;23.80;54.30;;;;;;5054158;28;20438;-89
2022/04/29 05:58:42;;;;;;;2.47;1.57;;;23.80;53.80;;;;;;5053576;28;20441;-92
2022/04/29 06:01:09;;;;;;;1.90;1.67;;;23.90;54.10;;;;;;5054409;28;20940;-87
2022/04/29 06:03:35;;;;;;;2.33;2.03;;;23.90;54.50;;;;;;5058169;28;20489;-90
2022/04/29 06:06:02;;;;;;;2.00;1.77;;;23.80;53.90;;;;;;5058668;28;20441;-87
2022/04/29 06:08:31;;;;;;;3.10;1.87;;;23.80;54.00;;;;;;5058346;28;20441;-92
2022/04/29 06:10:58;;;;;;;3.77;1.87;;;23.80;54.30;;;;;;5060440;28;20434;-89
2022/04/29 06:13:25;;;;;;;2.20;2.00;;;23.80;54.50;;;;;;5059520;28;20473;-87
2022/04/29 06:15:51;;;;;;;2.20;2.00;;;23.80;54.20;;;;;;5008764;28;20496;-96
2022/04/29 06:18:19;;;;;;;3.03;2.20;;;23.80;54.10;;;;;;5058068;28;20449;-87
2022/04/29 06:20:45;;;;;;;3.20;1.80;;;23.80;54.20;;;;;;5061115;28;20460;-87
2022/04/29 06:23:12;;;;;;;2.87;1.97;;;23.80;54.30;;;;;;5061887;28;20474;-96
2022/04/29 06:25:41;;;;;;;2.13;1.93;;;23.80;54.30;;;;;;5043841;28;20795;-94
2022/04/29 06:28:08;;;;;;;1.97;1.80;;;23.80;54.40;;;;;;5064591;28;20441;-91
2022/04/29 06:30:34;;;;;;;4.13;1.70;;;23.80;54.30;;;;;;5069130;28;20452;-96
2022/04/29 06:33:01;;;;;;;2.00;1.80;;;23.80;54.40;;;;;;5069707;28;21028;-93
2022/04/29 06:35:28;;;;;;;2.97;1.60;;;23.80;54.40;;;;;;5074153;28;20442;-88
2022/04/29 06:37:55;;;;;;;2.00;1.80;;;23.90;54.70;;;;;;5058637;28;20437;-96
2022/04/29 06:40:22;;;;;;;2.53;1.73;;;23.80;54.60;;;;;;5070008;28;20445;-91
2022/04/29 06:42:51;;;;;;;6.30;2.53;;;23.80;54.20;;;;;;5069738;28;20475;-95
2022/04/29 06:45:17;;;;;;;2.30;1.50;;;23.90;54.40;;;;;;5070653;28;20441;-90
2022/04/29 06:47:44;;;;;;;3.10;1.83;;;23.90;54.20;;;;;;5073097;28;20445;-87
2022/04/29 06:50:11;;;;;;;3.17;1.60;;;23.90;54.30;;;;;;5072049;28;20979;-90
2022/04/29 06:52:38;;;;;;;1.83;1.70;;;23.90;55.00;;;;;;5072428;28;20455;-88
2022/04/29 06:55:07;;;;;;;1.83;1.70;;;23.90;54.50;;;;;;5056092;28;20472;-96
2022/04/29 06:57:35;;;;;;;2.40;2.07;;;23.90;54.40;;;;;;5071957;28;20437;-95
2022/04/29 07:00:04;;;;;;;2.00;1.80;;;23.90;54.20;;;;;;5069691;28;20774;-93
2022/04/29 07:02:33;;;;;;;2.30;1.57;;;23.90;54.70;;;;;;5070972;28;20489;-94
2022/04/29 07:05:00;;;;;;;1.90;1.77;;;23.90;54.30;;;;;;5054415;28;20442;-94
2022/04/29 07:07:28;;;;;;;9.20;2.20;;;23.90;54.20;;;;;;5073670;28;20434;-96
2022/04/29 07:09:55;;;;;;;1.93;1.50;;;23.90;54.40;;;;;;5073052;28;20440;-94
2022/04/29 07:12:22;;;;;;;2.03;1.63;;;23.90;54.20;;;;;;5073295;28;20470;-88
2022/04/29 07:14:52;;;;;;;2.30;2.10;;;23.90;54.10;;;;;;5037620;28;20454;-96
2022/04/29 07:17:21;;;;;;;2.80;2.03;;;23.90;54.10;;;;;;5072219;28;20448;-87
2022/04/29 07:19:49;;;;;;;2.10;1.87;;;23.90;54.40;;;;;;5071814;28;20495;-88
2022/04/29 07:22:16;;;;;;;2.03;1.83;;;23.90;54.20;;;;;;5070964;28;20553;-96
2022/04/29 07:24:43;;;;;;;1.87;1.70;;;23.90;54.30;;;;;;5070311;28;21007;-96
2022/04/29 07:27:10;;;;;;;2.00;1.50;;;23.90;54.30;;;;;;5071642;28;20509;-88
2022/04/29 07:29:37;;;;;;;2.23;1.53;;;23.90;54.20;;;;;;5070429;28;20452;-96
2022/04/29 07:32:04;;;;;;;2.30;1.63;;;23.90;53.90;;;;;;5070523;28;20468;-89
2022/04/29 07:42:45;;;;;;;4.23;1.90;;;24.00;53.90;;;;;;5071478;28;20425;-96
2022/04/29 07:45:12;;;;;;;1.80;1.50;;;24.00;53.80;;;;;;5070556;28;20441;-94
2022/04/29 07:47:39;;;;;;;2.53;1.47;;;24.00;54.80;;;;;;5070446;28;20437;-94
2022/04/29 07:50:08;;;;;;;2.53;1.60;;;24.00;54.10;;;;;;5072880;28;20963;-95
2022/04/29 07:52:35;;;;;;;1.80;1.40;;;24.00;54.00;;;;;;5069906;28;20434;-96
2022/04/29 07:55:02;;;;;;;1.70;1.53;;;24.10;53.90;;;;;;5071945;28;20421;-96
2022/04/29 07:57:28;;;;;;;2.00;1.40;;;24.00;54.00;;;;;;5072287;28;20446;-92
2022/04/29 07:59:55;;;;;;;2.60;1.50;;;24.00;54.70;;;;;;5070092;28;20441;-93
2022/04/29 08:02:22;;;;;;;2.43;1.70;;;24.00;53.90;;;;;;5069334;28;20544;-96
2022/04/29 08:04:49;;;;;;;2.07;1.63;;;24.10;54.10;;;;;;5069751;28;20545;-91
2022/04/29 08:07:17;;;;;;;2.20;1.50;;;24.00;54.10;;;;;;5067412;28;20501;-96
2022/04/29 08:09:44;;;;;;;1.97;1.60;;;24.10;54.00;;;;;;5061264;28;21051;-90
2022/04/29 08:12:12;;;;;;;2.00;1.47;;;24.10;54.80;;;;;;5054163;28;20474;-89
2022/04/29 08:14:40;;;;;;;2.43;1.30;;;24.10;53.80;;;;;;5054534;28;20470;-88
2022/04/29 08:17:07;;;;;;;1.70;1.57;;;24.10;54.70;;;;;;5054861;28;20523;-92
2022/04/29 08:19:34;;;;;;;1.90;1.80;;;24.10;54.60;;;;;;5053523;28;20972;-85
2022/04/29 08:22:01;;;;;;;3.63;2.60;;;24.00;53.70;;;;;;5052495;28;20450;-88
2022/04/29 08:24:30;;;;;;;2.50;2.30;;;24.00;53.60;;;;;;5053994;28;20583;-89
2022/04/29 08:26:56;;;;;;;4.27;1.93;;;24.10;53.20;;;;;;5054589;28;20442;-87
2022/04/29 08:29:23;;;;;;;2.93;2.60;;;24.00;53.10;;;;;;5053888;28;20452;-84
2022/04/29 08:31:50;;;;;;;1.73;1.40;;;24.00;53.40;;;;;;5053980;28;20445;-87
2022/04/29 08:34:17;;;;;;;2.00;1.60;;;24.10;54.40;;;;;;5054249;28;20503;-87
2022/04/29 08:36:45;;;;;;;1.60;1.40;;;24.00;53.80;;;;;;5054243;28;20446;-87
2022/04/29 08:39:12;;;;;;;2.13;1.70;;;24.00;53.50;;;;;;5053688;28;20858;-88
2022/04/29 08:41:40;;;;;;;4.07;2.07;;;24.00;53.40;;;;;;5053735;28;20460;-89
2022/04/29 08:44:10;;;;;;;1.67;1.53;;;24.00;54.50;;;;;;5053685;28;20492;-88
2022/04/29 08:46:39;;;;;;;2.60;1.57;;;24.10;55.10;;;;;;5053526;28;20454;-88
2022/04/29 08:49:07;;;;;;;1.87;1.70;;;24.00;54.60;;;;;;5053373;28;20929;-89
2022/04/29 08:51:35;;;;;;;3.20;2.10;;;24.00;54.50;;;;;;5053359;28;20446;-89
2022/04/29 08:54:02;;;;;;;1.90;1.50;;;24.00;55.20;;;;;;5053167;28;20445;-89
2022/04/29 08:59:15;;;;;;;3.03;2.73;;;24.00;54.60;;;;;;5053359;28;20421;-90
2022/04/29 09:01:43;;;;;;;2.50;2.00;;;24.00;53.90;;;;;;5053033;28;20948;-82
2022/04/29 09:04:10;;;;;;;2.43;1.80;;;24.00;54.00;;;;;;5053782;28;20512;-88
2022/04/29 09:06:47;;;;;;;3.70;2.50;;;24.00;54.30;;;;;;5053955;28;20528;-90
2022/04/29 09:09:14;;;;;;;2.47;1.70;;;24.00;53.20;;;;;;5053569;28;20429;-90
2022/04/29 09:11:41;;;;;;;2.23;1.70;;;23.90;54.20;;;;;;5048352;28;20489;-90
2022/04/29 09:14:23;;;;;;;2.03;1.40;;;23.90;54.60;;;;;;5034361;28;20446;-91
2022/04/29 09:16:50;;;;;;;2.03;1.70;;;24.00;55.20;;;;;;5033778;28;20451;-93
2022/04/29 09:19:31;;;;;;;2.03;1.43;;;24.00;54.50;;;;;;5034326;28;20451;-91
2022/04/29 09:22:06;;;;;;;5.30;1.57;;;24.00;54.20;;;;;;5033839;28;20465;-90
2022/04/29 09:24:33;;;;;;;2.60;1.80;;;24.00;54.10;;;;;;5033855;28;20485;-90
2022/04/29 09:27:01;;;;;;;2.40;1.60;;;24.00;54.90;;;;;;5033667;28;20538;-91
2022/04/29 09:29:30;;;;;;;2.30;1.50;;;24.00;54.10;;;;;;5033459;28;20525;-91
2022/04/29 09:31:58;;;;;;;2.17;1.33;;;24.00;53.90;;;;;;5033603;28;20443;-91
2022/04/29 09:34:43;;;;;;;2.57;1.23;;;24.00;54.00;;;;;;5033338;28;20434;-93
2022/04/29 09:37:14;;;;;;;2.90;1.60;;;24.00;54.00;;;;;;5033995;28;20455;-91
2022/04/29 09:39:50;;;;;;;2.30;1.53;;;24.10;54.10;;;;;;5033548;28;20933;-91
2022/04/29 09:42:17;;;;;;;3.47;1.80;;;24.10;54.30;;;;;;5034338;28;20442;-91
2022/04/29 09:44:45;;;;;;;3.57;1.70;;;24.10;54.20;;;;;;5033252;28;20484;-91
2022/04/29 09:47:14;;;;;;;1.50;1.40;;;24.10;54.10;;;;;;5033706;28;20520;-92
2022/04/29 09:49:41;;;;;;;2.03;1.30;;;24.10;54.00;;;;;;5033214;28;20821;-92
2022/04/29 09:52:09;;;;;;;1.50;1.40;;;24.20;54.10;;;;;;5033119;28;20461;-91
2022/04/29 09:54:38;;;;;;;3.20;1.50;;;24.20;54.00;;;;;;5033582;28;20449;-91
2022/04/29 09:57:10;;;;;;;3.00;1.30;;;24.20;54.00;;;;;;5033301;28;20944;-93
2022/04/29 09:59:39;;;;;;;2.07;1.87;;;24.10;53.90;;;;;;5034103;28;20451;-91
2022/04/29 10:02:09;;;;;;;1.80;1.33;;;24.20;54.00;;;;;;5033661;28;20462;-91
2022/04/29 10:04:39;;;;;;;1.70;1.23;;;24.30;54.10;;;;;;5036586;28;20478;-91
2022/04/29 10:07:07;;;;;;;2.03;1.40;;;24.20;54.20;;;;;;5037003;28;20454;-91
2022/04/29 10:09:35;;;;;;;2.97;2.07;;;24.20;54.10;;;;;;5036963;28;20457;-93
2022/04/29 10:12:04;;;;;;;2.47;1.37;;;24.20;54.10;;;;;;5036831;28;20997;-91
2022/04/29 10:14:33;;;;;;;2.07;1.50;;;24.20;54.10;;;;;;5037045;28;20438;-90
2022/04/29 10:22:42;;;;;;;2.50;1.47;;;24.10;54.00;;;;;;5036953;28;20414;-91
2022/04/29 10:25:10;;;;;;;2.30;1.50;;;24.10;54.10;;;;;;5037254;28;20860;-91
2022/04/29 10:27:39;;;;;;;1.57;1.47;;;24.10;54.00;;;;;;5037762;28;20442;-92
2022/04/29 10:30:07;;;;;;;2.50;1.40;;;24.10;54.00;;;;;;5037774;28;20911;-91
2022/04/29 10:33:02;;;;;;;2.57;1.67;;;24.20;54.10;;;;;;5036838;28;20467;-91
2022/04/29 10:38:27;;;;;;;3.50;2.00;;;24.20;54.00;;;;;;5106307;27;1359501;-91
2022/04/29 10:41:12;;;;;;;1.40;1.30;;;24.20;54.10;;;;;;5132347;28;20204;-91
2022/04/29 10:43:39;;;;;;;1.80;1.67;;;24.20;54.10;;;;;;5132257;28;20938;-91
2022/04/29 10:46:21;;;;;;;2.17;1.50;;;24.20;54.10;;;;;;5131928;28;21007;-91
2022/04/29 10:48:49;;;;;;;1.77;1.37;;;24.20;54.10;;;;;;5132232;28;20444;-93
2022/04/29 10:51:20;;;;;;;1.50;1.40;;;24.20;54.10;;;;;;5132222;28;20457;-91
2022/04/29 10:53:50;;;;;;;2.47;1.33;;;24.20;54.10;;;;;;5131936;28;20453;-93
2022/04/29 10:56:39;;;;;;;1.53;1.30;;;24.20;54.10;;;;;;5131930;28;20813;-91
2022/04/29 10:59:21;;;;;;;2.50;1.60;;;24.30;54.10;;;;;;5131649;28;20435;-91
2022/04/29 11:02:07;;;;;;;2.10;1.40;;;24.30;54.30;;;;;;5129959;28;20439;-91
2022/04/29 11:04:45;;;;;;;1.70;1.40;;;24.30;54.20;;;;;;5112038;28;20431;-91
2022/04/29 11:07:44;;;;;;;2.03;1.33;;;24.30;54.20;;;;;;5111128;28;20439;-91
2022/04/29 11:10:18;;;;;;;1.87;1.20;;;24.30;54.10;;;;;;5112067;28;20910;-93
2022/04/29 11:12:59;;;;;;;1.50;1.40;;;24.20;54.20;;;;;;5111736;28;20442;-92
2022/04/29 11:15:42;;;;;;;1.47;1.03;;;24.40;54.30;;;;;;5110816;28;20455;-92
2022/04/29 11:18:22;;;;;;;1.60;1.50;;;24.30;54.50;;;;;;5110864;28;20481;-91
2022/04/29 11:20:55;;;;;;;2.23;1.60;;;24.30;54.30;;;;;;5111103;28;20427;-91
2022/04/29 11:26:21;;;;;;;1.70;1.33;;;24.40;54.30;;;;;;5054302;28;20477;-92
2022/04/29 11:28:52;;;;;;;1.47;1.23;;;24.30;54.30;;;;;;5111646;28;20787;-92
2022/04/29 11:31:20;;;;;;;1.10;0.90;;;24.40;54.30;;;;;;5110925;28;20423;-90
2022/04/29 11:33:47;;;;;;;2.13;1.70;;;24.30;54.30;;;;;;5110599;28;20471;-91
2022/04/29 11:36:14;;;;;;;1.20;1.10;;;24.40;54.30;;;;;;5110150;28;20447;-90
2022/04/29 11:38:42;;;;;;;2.90;1.50;;;24.40;54.50;;;;;;5111371;28;20443;-91
2022/04/29 11:41:15;;;;;;;1.30;1.10;;;24.40;54.30;;;;;;5110582;28;20458;-91
2022/04/29 11:43:46;;;;;;;1.67;1.57;;;24.40;54.20;;;;;;5111639;28;20427;-90
2022/04/29 11:46:14;;;;;;;2.13;1.27;;;24.40;54.20;;;;;;5110609;28;20435;-91
2022/04/29 11:48:52;;;;;;;1.50;1.40;;;24.40;54.30;;;;;;5102874;28;20783;-91
2022/04/29 11:51:19;;;;;;;1.40;1.23;;;24.40;54.20;;;;;;5097901;28;20440;-92
2022/04/29 11:53:57;;;;;;;2.17;1.47;;;24.50;54.80;;;;;;5096775;28;20480;-92
2022/04/29 11:56:32;;;;;;;1.93;1.50;;;24.50;54.50;;;;;;5096490;28;20977;-91
2022/04/29 11:59:00;;;;;;;2.20;1.30;;;24.40;54.30;;;;;;5096622;28;20436;-92
2022/04/29 12:01:28;;;;;;;2.10;1.40;;;24.50;54.80;;;;;;5097294;28;20452;-90
2022/04/29 12:03:55;;;;;;;1.77;1.43;;;24.50;54.40;;;;;;5096457;28;20464;-92
2022/04/29 12:06:22;;;;;;;1.93;1.40;;;24.50;54.40;;;;;;5096430;28;20444;-92
2022/04/29 12:08:49;;;;;;;1.70;1.20;;;24.50;55.00;;;;;;5097078;28;20515;-92
2022/04/29 12:11:24;;;;;;;1.33;1.23;;;24.50;55.30;;;;;;5097107;28;20455;-91
2022/04/29 12:13:50;;;;;;;1.47;1.37;;;24.60;54.40;;;;;;5097188;28;20497;-92
2022/04/29 12:16:19;;;;;;;1.93;1.50;;;24.50;54.70;;;;;;5096536;28;20440;-93
2022/04/29 12:18:47;;;;;;;2.03;1.30;;;24.50;54.30;;;;;;5095835;28;20486;-92
2022/04/29 12:21:22;;;;;;;1.37;1.20;;;24.60;54.30;;;;;;5097234;28;20444;-92
2022/04/29 12:23:49;;;;;;;1.80;1.10;;;24.60;54.60;;;;;;5095826;28;20751;-92
2022/04/29 12:26:16;;;;;;;1.57;1.30;;;24.50;54.40;;;;;;5097126;28;20455;-91
2022/04/29 12:28:43;;;;;;;1.80;1.30;;;24.60;54.90;;;;;;5096874;28;20543;-91
2022/04/29 12:37:20;;;;;;;2.13;1.50;;;24.60;54.20;;;;;;5095869;28;20479;-92
2022/04/29 12:39:49;;;;;;;1.50;1.40;;;24.50;54.60;;;;;;5096032;28;20440;-92
2022/04/29 12:42:18;;;;;;;1.90;1.40;;;24.60;54.40;;;;;;5096339;28;20452;-92
2022/04/29 12:45:05;;;;;;;1.40;1.30;;;24.60;54.40;;;;;;5095480;28;20440;-91
2022/04/29 12:47:33;;;;;;;1.60;1.20;;;24.60;54.30;;;;;;5095490;28;20432;-91
2022/04/29 12:50:16;;;;;;;1.30;1.20;;;24.50;54.20;;;;;;5095735;28;20448;-91
2022/04/29 12:52:57;;;;;;;1.40;1.30;;;24.60;54.30;;;;;;5095985;28;20456;-93
2022/04/29 12:55:24;;;;;;;1.60;1.10;;;24.60;54.20;;;;;;5095614;28;20448;-92
2022/04/29 12:57:51;;;;;;;1.20;1.10;;;24.50;54.30;;;;;;5095348;28;20493;-92
2022/04/29 13:00:25;;;;;;;1.47;1.37;;;24.50;54.70;;;;;;5095054;28;20501;-91
2022/04/29 13:03:03;;;;;;;1.43;1.20;;;24.50;54.40;;;;;;5095174;28;20474;-92
2022/04/29 13:05:30;;;;;;;2.10;1.20;;;24.50;54.20;;;;;;5095685;28;20518;-91
2022/04/29 13:07:58;;;;;;;1.47;1.30;;;24.50;55.00;;;;;;5095575;28;20444;-92
2022/04/29 13:10:25;;;;;;;1.17;1.07;;;24.50;55.30;;;;;;5095284;28;20452;-92
2022/04/29 13:12:53;;;;;;;2.10;1.23;;;24.50;55.10;;;;;;5096169;28;20439;-93
2022/04/29 13:15:20;;;;;;;1.50;1.40;;;24.50;54.40;;;;;;5096147;28;20538;-91
2022/04/29 13:17:47;;;;;;;1.60;1.03;;;24.50;54.40;;;;;;5095095;28;20475;-91
2022/04/29 13:20:14;;;;;;;1.20;1.10;;;24.40;54.30;;;;;;5094696;28;20511;-91
2022/04/29 13:22:41;;;;;;;1.93;1.40;;;24.50;54.80;;;;;;5095205;28;20447;-92
2022/04/29 13:25:10;;;;;;;1.20;1.00;;;24.50;54.30;;;;;;5095479;28;20470;-91
2022/04/29 13:27:38;;;;;;;1.80;1.20;;;24.50;54.30;;;;;;5095386;28;20531;-91
2022/04/29 13:30:06;;;;;;;3.30;1.47;;;24.50;54.30;;;;;;5095452;28;20447;-91
2022/04/29 13:32:33;;;;;;;1.53;1.20;;;24.50;54.20;;;;;;5094874;28;20471;-92